sensor_id;sensor_type;location;lat;lon;timestamp;P1;durP1;ratioP1;P2;durP2;ratioP2
65405;SDS011;52016;51.228;-2.322;2022-07-18T00:03:05;4.32;;;2.78;;
65405;SDS011;52016;51.228;-2.322;2022-07-18T00:06:47;3.13;;;2.50;;
65405;SDS011;52016;51.228;-2.322;2022-07-18T00:10:28;5.65;;;2.80;;
65405;SDS011;52016;51.228;-2.322;2022-07-18T00:14:11;5.82;;;3.13;;
65405;SDS011;52016;51.228;-2.322;2022-07-18T00:17:53;7.10;;;2.97;;
65405;SDS011;52016;51.228;-2.322;2022-07-18T00:21:35;9.82;;;3.58;;
65405;SDS011;52016;51.228;-2.322;2022-07-18T00:25:17;8.55;;;3.38;;
65405;SDS011;52016;51.228;-2.322;2022-07-18T00:28:59;8.55;;;2.92;;
65405;SDS011;52016;51.228;-2.322;2022-07-18T00:32:41;4.53;;;2.80;;
65405;SDS011;52016;51.228;-2.322;2022-07-18T00:36:23;3.65;;;2.88;;
65405;SDS011;52016;51.228;-2.322;2022-07-18T00:40:05;6.22;;;2.92;;
65405;SDS011;52016;51.228;-2.322;2022-07-18T00:43:47;4.13;;;2.78;;
65405;SDS011;52016;51.228;-2.322;2022-07-18T00:47:29;8.05;;;2.70;;
65405;SDS011;52016;51.228;-2.322;2022-07-18T00:51:11;4.85;;;2.65;;
65405;SDS011;52016;51.228;-2.322;2022-07-18T00:54:53;8.93;;;2.80;;
65405;SDS011;52016;51.228;-2.322;2022-07-18T00:58:35;4.72;;;2.70;;
65405;SDS011;52016;51.228;-2.322;2022-07-18T01:02:18;8.35;;;2.60;;
65405;SDS011;52016;51.228;-2.322;2022-07-18T01:06:00;3.65;;;3.10;;
65405;SDS011;52016;51.228;-2.322;2022-07-18T01:09:42;7.13;;;3.03;;
65405;SDS011;52016;51.228;-2.322;2022-07-18T01:13:24;5.47;;;3.20;;
65405;SDS011;52016;51.228;-2.322;2022-07-18T01:17:16;6.93;;;3.20;;
65405;SDS011;52016;51.228;-2.322;2022-07-18T01:20:59;6.47;;;3.55;;
65405;SDS011;52016;51.228;-2.322;2022-07-18T01:24:42;4.60;;;3.20;;
65405;SDS011;52016;51.228;-2.322;2022-07-18T01:28:24;6.72;;;3.35;;
65405;SDS011;52016;51.228;-2.322;2022-07-18T01:32:06;4.78;;;3.42;;
65405;SDS011;52016;51.228;-2.322;2022-07-18T01:35:50;5.07;;;3.25;;
65405;SDS011;52016;51.228;-2.322;2022-07-18T01:39:32;6.07;;;3.20;;
65405;SDS011;52016;51.228;-2.322;2022-07-18T01:43:14;5.30;;;3.08;;
65405;SDS011;52016;51.228;-2.322;2022-07-18T01:46:56;6.28;;;3.35;;
65405;SDS011;52016;51.228;-2.322;2022-07-18T01:50:38;4.47;;;3.13;;
65405;SDS011;52016;51.228;-2.322;2022-07-18T01:54:21;5.30;;;3.47;;
65405;SDS011;52016;51.228;-2.322;2022-07-18T01:58:05;4.78;;;3.40;;
65405;SDS011;52016;51.228;-2.322;2022-07-18T02:01:47;5.10;;;3.15;;
65405;SDS011;52016;51.228;-2.322;2022-07-18T02:05:29;5.60;;;3.22;;
65405;SDS011;52016;51.228;-2.322;2022-07-18T02:09:11;8.07;;;3.45;;
65405;SDS011;52016;51.228;-2.322;2022-07-18T02:12:53;6.38;;;3.20;;
65405;SDS011;52016;51.228;-2.322;2022-07-18T02:16:35;4.10;;;3.05;;
65405;SDS011;52016;51.228;-2.322;2022-07-18T02:20:17;3.80;;;3.08;;
65405;SDS011;52016;51.228;-2.322;2022-07-18T02:23:59;5.30;;;2.97;;
65405;SDS011;52016;51.228;-2.322;2022-07-18T02:27:40;4.35;;;3.22;;
65405;SDS011;52016;51.228;-2.322;2022-07-18T02:31:22;6.22;;;3.08;;
65405;SDS011;52016;51.228;-2.322;2022-07-18T02:35:05;5.38;;;3.17;;
65405;SDS011;52016;51.228;-2.322;2022-07-18T02:38:49;5.00;;;3.15;;
65405;SDS011;52016;51.228;-2.322;2022-07-18T02:42:31;6.88;;;3.10;;
65405;SDS011;52016;51.228;-2.322;2022-07-18T02:46:13;5.13;;;3.30;;
65405;SDS011;52016;51.228;-2.322;2022-07-18T02:49:55;4.45;;;3.53;;
65405;SDS011;52016;51.228;-2.322;2022-07-18T02:53:37;6.55;;;3.90;;
65405;SDS011;52016;51.228;-2.322;2022-07-18T02:57:19;8.75;;;3.60;;
65405;SDS011;52016;51.228;-2.322;2022-07-18T03:01:01;5.35;;;3.80;;
65405;SDS011;52016;51.228;-2.322;2022-07-18T03:04:43;5.50;;;4.05;;
65405;SDS011;52016;51.228;-2.322;2022-07-18T03:08:24;7.07;;;3.63;;
65405;SDS011;52016;51.228;-2.322;2022-07-18T03:12:06;8.60;;;3.67;;
65405;SDS011;52016;51.228;-2.322;2022-07-18T03:15:48;5.65;;;3.40;;
65405;SDS011;52016;51.228;-2.322;2022-07-18T03:19:30;5.95;;;3.90;;
65405;SDS011;52016;51.228;-2.322;2022-07-18T03:23:12;7.40;;;4.10;;
65405;SDS011;52016;51.228;-2.322;2022-07-18T03:26:54;5.35;;;4.10;;
65405;SDS011;52016;51.228;-2.322;2022-07-18T03:30:36;6.18;;;4.10;;
65405;SDS011;52016;51.228;-2.322;2022-07-18T03:34:18;7.18;;;4.25;;
65405;SDS011;52016;51.228;-2.322;2022-07-18T03:38:00;7.18;;;3.95;;
65405;SDS011;52016;51.228;-2.322;2022-07-18T03:41:42;9.65;;;4.18;;
65405;SDS011;52016;51.228;-2.322;2022-07-18T03:45:24;10.23;;;4.05;;
65405;SDS011;52016;51.228;-2.322;2022-07-18T03:49:06;6.70;;;4.00;;
65405;SDS011;52016;51.228;-2.322;2022-07-18T03:52:48;14.57;;;5.03;;
65405;SDS011;52016;51.228;-2.322;2022-07-18T03:56:30;10.32;;;4.47;;
65405;SDS011;52016;51.228;-2.322;2022-07-18T04:00:12;6.22;;;4.18;;
65405;SDS011;52016;51.228;-2.322;2022-07-18T04:03:55;8.45;;;4.55;;
65405;SDS011;52016;51.228;-2.322;2022-07-18T04:07:37;9.45;;;4.97;;
65405;SDS011;52016;51.228;-2.322;2022-07-18T04:11:19;11.77;;;4.65;;
65405;SDS011;52016;51.228;-2.322;2022-07-18T04:15:05;8.45;;;4.40;;
65405;SDS011;52016;51.228;-2.322;2022-07-18T04:18:47;7.03;;;4.68;;
65405;SDS011;52016;51.228;-2.322;2022-07-18T04:22:29;9.15;;;5.13;;
65405;SDS011;52016;51.228;-2.322;2022-07-18T04:26:11;24.23;;;6.60;;
65405;SDS011;52016;51.228;-2.322;2022-07-18T04:29:53;9.60;;;5.72;;
65405;SDS011;52016;51.228;-2.322;2022-07-18T04:33:35;10.68;;;6.50;;
65405;SDS011;52016;51.228;-2.322;2022-07-18T04:37:17;10.90;;;6.55;;
65405;SDS011;52016;51.228;-2.322;2022-07-18T04:40:58;15.05;;;8.27;;
65405;SDS011;52016;51.228;-2.322;2022-07-18T04:44:40;14.00;;;8.95;;
65405;SDS011;52016;51.228;-2.322;2022-07-18T04:48:22;15.60;;;9.30;;
65405;SDS011;52016;51.228;-2.322;2022-07-18T04:52:04;18.30;;;10.65;;
65405;SDS011;52016;51.228;-2.322;2022-07-18T04:55:46;13.95;;;7.70;;
65405;SDS011;52016;51.228;-2.322;2022-07-18T04:59:28;10.07;;;5.72;;
65405;SDS011;52016;51.228;-2.322;2022-07-18T05:03:17;16.33;;;9.40;;
65405;SDS011;52016;51.228;-2.322;2022-07-18T05:06:59;16.23;;;10.18;;
65405;SDS011;52016;51.228;-2.322;2022-07-18T05:10:41;18.65;;;9.00;;
65405;SDS011;52016;51.228;-2.322;2022-07-18T05:14:23;13.30;;;8.55;;
65405;SDS011;52016;51.228;-2.322;2022-07-18T05:18:05;13.35;;;9.55;;
65405;SDS011;52016;51.228;-2.322;2022-07-18T05:21:47;12.50;;;8.38;;
65405;SDS011;52016;51.228;-2.322;2022-07-18T05:25:29;14.30;;;8.32;;
65405;SDS011;52016;51.228;-2.322;2022-07-18T05:29:11;12.55;;;7.68;;
65405;SDS011;52016;51.228;-2.322;2022-07-18T05:32:54;15.00;;;7.38;;
65405;SDS011;52016;51.228;-2.322;2022-07-18T05:36:36;16.60;;;6.57;;
65405;SDS011;52016;51.228;-2.322;2022-07-18T05:40:17;12.93;;;6.95;;
65405;SDS011;52016;51.228;-2.322;2022-07-18T05:43:59;10.80;;;6.50;;
65405;SDS011;52016;51.228;-2.322;2022-07-18T05:47:41;13.10;;;5.97;;
65405;SDS011;52016;51.228;-2.322;2022-07-18T05:51:23;17.08;;;5.20;;
65405;SDS011;52016;51.228;-2.322;2022-07-18T05:55:06;14.73;;;5.03;;
65405;SDS011;52016;51.228;-2.322;2022-07-18T05:58:48;11.95;;;5.38;;
65405;SDS011;52016;51.228;-2.322;2022-07-18T06:02:30;13.00;;;5.15;;
65405;SDS011;52016;51.228;-2.322;2022-07-18T06:06:13;24.20;;;5.43;;
65405;SDS011;52016;51.228;-2.322;2022-07-18T06:09:55;13.13;;;4.72;;
65405;SDS011;52016;51.228;-2.322;2022-07-18T06:13:38;10.30;;;4.65;;
65405;SDS011;52016;51.228;-2.322;2022-07-18T06:17:21;7.82;;;4.55;;
65405;SDS011;52016;51.228;-2.322;2022-07-18T06:21:04;10.13;;;4.10;;
65405;SDS011;52016;51.228;-2.322;2022-07-18T06:24:46;10.35;;;5.00;;
65405;SDS011;52016;51.228;-2.322;2022-07-18T06:28:27;11.75;;;4.57;;
65405;SDS011;52016;51.228;-2.322;2022-07-18T06:32:09;8.25;;;3.70;;
65405;SDS011;52016;51.228;-2.322;2022-07-18T06:35:51;8.63;;;3.85;;
65405;SDS011;52016;51.228;-2.322;2022-07-18T06:39:33;10.88;;;3.75;;
65405;SDS011;52016;51.228;-2.322;2022-07-18T06:43:15;8.43;;;3.50;;
65405;SDS011;52016;51.228;-2.322;2022-07-18T06:47:00;6.65;;;3.50;;
65405;SDS011;52016;51.228;-2.322;2022-07-18T06:50:42;12.52;;;4.10;;
65405;SDS011;52016;51.228;-2.322;2022-07-18T06:54:24;8.68;;;3.78;;
65405;SDS011;52016;51.228;-2.322;2022-07-18T06:58:08;6.55;;;3.42;;
65405;SDS011;52016;51.228;-2.322;2022-07-18T07:01:51;13.88;;;3.70;;
65405;SDS011;52016;51.228;-2.322;2022-07-18T07:05:33;7.18;;;3.60;;
65405;SDS011;52016;51.228;-2.322;2022-07-18T07:09:14;6.45;;;3.30;;
65405;SDS011;52016;51.228;-2.322;2022-07-18T07:12:56;7.72;;;3.50;;
65405;SDS011;52016;51.228;-2.322;2022-07-18T07:16:38;7.43;;;3.60;;
65405;SDS011;52016;51.228;-2.322;2022-07-18T07:20:20;7.68;;;3.72;;
65405;SDS011;52016;51.228;-2.322;2022-07-18T07:24:03;5.55;;;3.47;;
65405;SDS011;52016;51.228;-2.322;2022-07-18T07:27:45;8.80;;;3.15;;
65405;SDS011;52016;51.228;-2.322;2022-07-18T07:31:27;5.97;;;3.40;;
65405;SDS011;52016;51.228;-2.322;2022-07-18T07:35:10;8.85;;;3.35;;
65405;SDS011;52016;51.228;-2.322;2022-07-18T07:38:54;8.68;;;3.60;;
65405;SDS011;52016;51.228;-2.322;2022-07-18T07:42:36;7.43;;;3.92;;
65405;SDS011;52016;51.228;-2.322;2022-07-18T07:46:18;8.05;;;3.83;;
65405;SDS011;52016;51.228;-2.322;2022-07-18T07:50:00;18.50;;;3.78;;
65405;SDS011;52016;51.228;-2.322;2022-07-18T07:53:42;9.18;;;4.45;;
65405;SDS011;52016;51.228;-2.322;2022-07-18T07:57:24;12.93;;;3.47;;
65405;SDS011;52016;51.228;-2.322;2022-07-18T08:01:13;8.75;;;3.33;;
65405;SDS011;52016;51.228;-2.322;2022-07-18T08:04:58;10.43;;;3.42;;
65405;SDS011;52016;51.228;-2.322;2022-07-18T08:08:41;5.15;;;3.10;;
65405;SDS011;52016;51.228;-2.322;2022-07-18T08:12:22;7.95;;;3.10;;
65405;SDS011;52016;51.228;-2.322;2022-07-18T08:16:04;8.30;;;3.15;;
65405;SDS011;52016;51.228;-2.322;2022-07-18T08:19:46;7.82;;;3.55;;
65405;SDS011;52016;51.228;-2.322;2022-07-18T08:23:28;8.57;;;3.08;;
65405;SDS011;52016;51.228;-2.322;2022-07-18T08:27:10;7.22;;;2.90;;
65405;SDS011;52016;51.228;-2.322;2022-07-18T08:30:52;8.10;;;3.50;;
65405;SDS011;52016;51.228;-2.322;2022-07-18T08:34:34;6.82;;;3.33;;
65405;SDS011;52016;51.228;-2.322;2022-07-18T08:38:16;8.32;;;2.58;;
65405;SDS011;52016;51.228;-2.322;2022-07-18T08:41:59;7.93;;;2.40;;
65405;SDS011;52016;51.228;-2.322;2022-07-18T08:45:42;11.02;;;2.80;;
65405;SDS011;52016;51.228;-2.322;2022-07-18T08:49:24;7.03;;;2.60;;
65405;SDS011;52016;51.228;-2.322;2022-07-18T08:53:07;8.07;;;2.70;;
65405;SDS011;52016;51.228;-2.322;2022-07-18T08:56:51;6.95;;;2.75;;
65405;SDS011;52016;51.228;-2.322;2022-07-18T09:00:33;5.28;;;2.30;;
65405;SDS011;52016;51.228;-2.322;2022-07-18T09:04:39;7.57;;;2.40;;
65405;SDS011;52016;51.228;-2.322;2022-07-18T09:08:22;8.93;;;2.03;;
65405;SDS011;52016;51.228;-2.322;2022-07-18T09:12:05;8.00;;;2.30;;
65405;SDS011;52016;51.228;-2.322;2022-07-18T09:19:42;10.13;;;2.38;;
65405;SDS011;52016;51.228;-2.322;2022-07-18T09:23:38;8.07;;;2.53;;
65405;SDS011;52016;51.228;-2.322;2022-07-18T09:27:22;4.55;;;2.40;;
65405;SDS011;52016;51.228;-2.322;2022-07-18T09:31:16;7.65;;;2.22;;
65405;SDS011;52016;51.228;-2.322;2022-07-18T09:38:48;4.68;;;2.25;;
65405;SDS011;52016;51.228;-2.322;2022-07-18T09:42:30;4.70;;;2.00;;
65405;SDS011;52016;51.228;-2.322;2022-07-18T09:46:12;7.20;;;2.00;;
65405;SDS011;52016;51.228;-2.322;2022-07-18T09:50:00;6.25;;;2.10;;
65405;SDS011;52016;51.228;-2.322;2022-07-18T09:53:43;6.93;;;2.05;;
65405;SDS011;52016;51.228;-2.322;2022-07-18T09:57:26;4.32;;;2.03;;
65405;SDS011;52016;51.228;-2.322;2022-07-18T10:01:09;5.35;;;2.10;;
65405;SDS011;52016;51.228;-2.322;2022-07-18T10:04:53;9.80;;;2.40;;
65405;SDS011;52016;51.228;-2.322;2022-07-18T10:08:36;10.43;;;2.38;;
65405;SDS011;52016;51.228;-2.322;2022-07-18T10:12:19;4.18;;;2.30;;
65405;SDS011;52016;51.228;-2.322;2022-07-18T10:16:01;5.25;;;2.65;;
65405;SDS011;52016;51.228;-2.322;2022-07-18T10:19:44;5.45;;;2.08;;
65405;SDS011;52016;51.228;-2.322;2022-07-18T10:23:40;3.25;;;2.13;;
65405;SDS011;52016;51.228;-2.322;2022-07-18T10:27:23;4.00;;;2.22;;
65405;SDS011;52016;51.228;-2.322;2022-07-18T10:31:14;4.25;;;2.08;;
65405;SDS011;52016;51.228;-2.322;2022-07-18T10:34:57;5.38;;;2.15;;
65405;SDS011;52016;51.228;-2.322;2022-07-18T10:39:03;9.30;;;1.90;;
65405;SDS011;52016;51.228;-2.322;2022-07-18T10:50:59;4.20;;;2.25;;
65405;SDS011;52016;51.228;-2.322;2022-07-18T10:54:41;5.93;;;2.17;;
65405;SDS011;52016;51.228;-2.322;2022-07-18T10:59:01;3.88;;;2.08;;
65405;SDS011;52016;51.228;-2.322;2022-07-18T11:03:07;3.78;;;1.90;;
65405;SDS011;52016;51.228;-2.322;2022-07-18T11:22:35;4.43;;;1.98;;
65405;SDS011;52016;51.228;-2.322;2022-07-18T11:26:18;2.88;;;1.92;;
65405;SDS011;52016;51.228;-2.322;2022-07-18T11:30:04;4.30;;;1.80;;
65405;SDS011;52016;51.228;-2.322;2022-07-18T11:33:47;4.72;;;2.03;;
65405;SDS011;52016;51.228;-2.322;2022-07-18T11:37:30;4.72;;;2.20;;
65405;SDS011;52016;51.228;-2.322;2022-07-18T11:41:12;3.30;;;1.90;;
65405;SDS011;52016;51.228;-2.322;2022-07-18T11:44:58;4.75;;;1.98;;
65405;SDS011;52016;51.228;-2.322;2022-07-18T11:48:40;2.92;;;1.77;;
65405;SDS011;52016;51.228;-2.322;2022-07-18T11:52:23;3.80;;;1.70;;
65405;SDS011;52016;51.228;-2.322;2022-07-18T11:56:12;5.43;;;1.80;;
65405;SDS011;52016;51.228;-2.322;2022-07-18T11:59:55;2.53;;;1.73;;
65405;SDS011;52016;51.228;-2.322;2022-07-18T12:03:39;5.72;;;1.77;;
65405;SDS011;52016;51.228;-2.322;2022-07-18T12:07:24;9.80;;;1.92;;
65405;SDS011;52016;51.228;-2.322;2022-07-18T12:11:11;8.63;;;1.92;;
65405;SDS011;52016;51.228;-2.322;2022-07-18T12:14:57;5.10;;;2.15;;
65405;SDS011;52016;51.228;-2.322;2022-07-18T12:18:51;6.18;;;1.90;;
65405;SDS011;52016;51.228;-2.322;2022-07-18T12:22:35;6.53;;;2.25;;
65405;SDS011;52016;51.228;-2.322;2022-07-18T12:26:29;5.57;;;1.83;;
65405;SDS011;52016;51.228;-2.322;2022-07-18T12:30:27;18.08;;;2.10;;
65405;SDS011;52016;51.228;-2.322;2022-07-18T12:34:10;8.02;;;2.28;;
65405;SDS011;52016;51.228;-2.322;2022-07-18T12:38:04;5.68;;;1.90;;
65405;SDS011;52016;51.228;-2.322;2022-07-18T12:41:52;5.60;;;1.70;;
65405;SDS011;52016;51.228;-2.322;2022-07-18T12:45:35;3.35;;;2.03;;
65405;SDS011;52016;51.228;-2.322;2022-07-18T12:49:18;8.38;;;2.38;;
65405;SDS011;52016;51.228;-2.322;2022-07-18T12:53:00;3.78;;;1.77;;
65405;SDS011;52016;51.228;-2.322;2022-07-18T12:56:42;11.18;;;1.85;;
65405;SDS011;52016;51.228;-2.322;2022-07-18T13:00:24;4.53;;;1.55;;
65405;SDS011;52016;51.228;-2.322;2022-07-18T13:04:06;3.50;;;1.80;;
65405;SDS011;52016;51.228;-2.322;2022-07-18T13:07:48;11.25;;;1.98;;
65405;SDS011;52016;51.228;-2.322;2022-07-18T13:11:30;8.25;;;1.95;;
65405;SDS011;52016;51.228;-2.322;2022-07-18T13:15:13;4.03;;;1.85;;
65405;SDS011;52016;51.228;-2.322;2022-07-18T13:18:55;3.38;;;1.80;;
65405;SDS011;52016;51.228;-2.322;2022-07-18T13:22:37;4.07;;;1.73;;
65405;SDS011;52016;51.228;-2.322;2022-07-18T13:26:19;4.15;;;1.90;;
65405;SDS011;52016;51.228;-2.322;2022-07-18T13:30:03;8.68;;;2.30;;
65405;SDS011;52016;51.228;-2.322;2022-07-18T13:33:46;10.45;;;1.90;;
65405;SDS011;52016;51.228;-2.322;2022-07-18T13:37:28;3.35;;;1.73;;
65405;SDS011;52016;51.228;-2.322;2022-07-18T13:41:10;3.03;;;1.50;;
65405;SDS011;52016;51.228;-2.322;2022-07-18T13:44:52;3.60;;;2.05;;
65405;SDS011;52016;51.228;-2.322;2022-07-18T13:48:34;3.97;;;1.90;;
65405;SDS011;52016;51.228;-2.322;2022-07-18T13:52:16;39.88;;;10.38;;
65405;SDS011;52016;51.228;-2.322;2022-07-18T13:55:58;7.78;;;2.10;;
65405;SDS011;52016;51.228;-2.322;2022-07-18T13:59:40;8.73;;;1.73;;
65405;SDS011;52016;51.228;-2.322;2022-07-18T14:03:22;10.82;;;1.77;;
65405;SDS011;52016;51.228;-2.322;2022-07-18T14:07:04;1.85;;;1.70;;
65405;SDS011;52016;51.228;-2.322;2022-07-18T14:10:47;5.43;;;1.58;;
65405;SDS011;52016;51.228;-2.322;2022-07-18T14:14:29;4.68;;;1.80;;
65405;SDS011;52016;51.228;-2.322;2022-07-18T14:18:11;5.90;;;1.77;;
65405;SDS011;52016;51.228;-2.322;2022-07-18T14:21:53;4.88;;;1.30;;
65405;SDS011;52016;51.228;-2.322;2022-07-18T14:25:35;4.65;;;1.33;;
65405;SDS011;52016;51.228;-2.322;2022-07-18T14:29:17;4.15;;;1.40;;
65405;SDS011;52016;51.228;-2.322;2022-07-18T14:32:59;5.40;;;1.23;;
65405;SDS011;52016;51.228;-2.322;2022-07-18T14:36:41;6.15;;;1.60;;
65405;SDS011;52016;51.228;-2.322;2022-07-18T14:40:23;7.43;;;1.40;;
65405;SDS011;52016;51.228;-2.322;2022-07-18T14:44:05;3.00;;;1.30;;
65405;SDS011;52016;51.228;-2.322;2022-07-18T14:47:47;3.88;;;1.40;;
65405;SDS011;52016;51.228;-2.322;2022-07-18T14:51:28;3.70;;;1.30;;
65405;SDS011;52016;51.228;-2.322;2022-07-18T14:55:11;2.05;;;1.35;;
65405;SDS011;52016;51.228;-2.322;2022-07-18T14:58:53;3.15;;;1.20;;
65405;SDS011;52016;51.228;-2.322;2022-07-18T15:02:35;3.60;;;1.20;;
65405;SDS011;52016;51.228;-2.322;2022-07-18T15:06:18;7.05;;;1.60;;
65405;SDS011;52016;51.228;-2.322;2022-07-18T15:10:00;6.78;;;1.58;;
65405;SDS011;52016;51.228;-2.322;2022-07-18T15:13:42;2.13;;;1.17;;
65405;SDS011;52016;51.228;-2.322;2022-07-18T15:17:24;7.43;;;1.38;;
65405;SDS011;52016;51.228;-2.322;2022-07-18T15:21:06;4.93;;;1.40;;
65405;SDS011;52016;51.228;-2.322;2022-07-18T15:24:48;3.80;;;1.50;;
65405;SDS011;52016;51.228;-2.322;2022-07-18T15:28:30;2.15;;;1.30;;
65405;SDS011;52016;51.228;-2.322;2022-07-18T15:32:12;4.68;;;1.30;;
65405;SDS011;52016;51.228;-2.322;2022-07-18T15:35:54;6.07;;;1.40;;
65405;SDS011;52016;51.228;-2.322;2022-07-18T15:39:36;4.25;;;1.40;;
65405;SDS011;52016;51.228;-2.322;2022-07-18T15:43:19;3.97;;;1.27;;
65405;SDS011;52016;51.228;-2.322;2022-07-18T15:47:01;5.45;;;1.48;;
65405;SDS011;52016;51.228;-2.322;2022-07-18T15:50:42;4.53;;;1.20;;
65405;SDS011;52016;51.228;-2.322;2022-07-18T15:54:24;3.47;;;1.20;;
65405;SDS011;52016;51.228;-2.322;2022-07-18T15:58:07;2.42;;;1.30;;
65405;SDS011;52016;51.228;-2.322;2022-07-18T16:01:49;6.13;;;1.30;;
65405;SDS011;52016;51.228;-2.322;2022-07-18T16:05:32;2.50;;;1.20;;
65405;SDS011;52016;51.228;-2.322;2022-07-18T16:09:14;1.73;;;1.30;;
65405;SDS011;52016;51.228;-2.322;2022-07-18T16:12:55;3.90;;;1.40;;
65405;SDS011;52016;51.228;-2.322;2022-07-18T16:16:37;2.15;;;1.27;;
65405;SDS011;52016;51.228;-2.322;2022-07-18T16:20:20;6.40;;;1.23;;
65405;SDS011;52016;51.228;-2.322;2022-07-18T16:24:02;1.33;;;1.23;;
65405;SDS011;52016;51.228;-2.322;2022-07-18T16:27:44;3.25;;;1.40;;
65405;SDS011;52016;51.228;-2.322;2022-07-18T16:31:26;3.03;;;1.33;;
65405;SDS011;52016;51.228;-2.322;2022-07-18T16:35:08;3.10;;;1.20;;
65405;SDS011;52016;51.228;-2.322;2022-07-18T16:38:50;2.25;;;1.10;;
65405;SDS011;52016;51.228;-2.322;2022-07-18T16:42:32;4.45;;;1.17;;
65405;SDS011;52016;51.228;-2.322;2022-07-18T16:46:15;3.83;;;1.10;;
65405;SDS011;52016;51.228;-2.322;2022-07-18T16:49:57;5.60;;;1.20;;
65405;SDS011;52016;51.228;-2.322;2022-07-18T16:53:39;4.32;;;1.02;;
65405;SDS011;52016;51.228;-2.322;2022-07-18T16:57:21;1.98;;;1.25;;
65405;SDS011;52016;51.228;-2.322;2022-07-18T17:01:06;2.00;;;1.20;;
65405;SDS011;52016;51.228;-2.322;2022-07-18T17:04:50;6.15;;;1.38;;
65405;SDS011;52016;51.228;-2.322;2022-07-18T17:08:32;4.35;;;1.25;;
65405;SDS011;52016;51.228;-2.322;2022-07-18T17:12:15;3.25;;;1.30;;
65405;SDS011;52016;51.228;-2.322;2022-07-18T17:15:58;5.97;;;1.30;;
65405;SDS011;52016;51.228;-2.322;2022-07-18T17:19:41;1.27;;;0.98;;
65405;SDS011;52016;51.228;-2.322;2022-07-18T17:23:23;2.80;;;1.10;;
65405;SDS011;52016;51.228;-2.322;2022-07-18T17:27:07;5.05;;;1.17;;
65405;SDS011;52016;51.228;-2.322;2022-07-18T17:30:50;3.83;;;1.40;;
65405;SDS011;52016;51.228;-2.322;2022-07-18T17:34:32;6.78;;;1.75;;
65405;SDS011;52016;51.228;-2.322;2022-07-18T17:38:15;3.42;;;1.50;;
65405;SDS011;52016;51.228;-2.322;2022-07-18T17:41:58;3.45;;;1.38;;
65405;SDS011;52016;51.228;-2.322;2022-07-18T17:45:40;11.35;;;1.50;;
65405;SDS011;52016;51.228;-2.322;2022-07-18T17:49:22;3.72;;;1.30;;
65405;SDS011;52016;51.228;-2.322;2022-07-18T17:53:04;4.28;;;1.30;;
65405;SDS011;52016;51.228;-2.322;2022-07-18T17:56:46;2.17;;;1.20;;
65405;SDS011;52016;51.228;-2.322;2022-07-18T18:00:29;2.03;;;1.23;;
65405;SDS011;52016;51.228;-2.322;2022-07-18T18:04:12;1.67;;;1.23;;
65405;SDS011;52016;51.228;-2.322;2022-07-18T18:07:54;1.58;;;1.20;;
65405;SDS011;52016;51.228;-2.322;2022-07-18T18:11:36;1.85;;;1.30;;
65405;SDS011;52016;51.228;-2.322;2022-07-18T18:15:18;2.15;;;1.30;;
65405;SDS011;52016;51.228;-2.322;2022-07-18T18:19:00;4.32;;;1.33;;
65405;SDS011;52016;51.228;-2.322;2022-07-18T18:22:42;3.28;;;1.42;;
65405;SDS011;52016;51.228;-2.322;2022-07-18T18:26:32;2.80;;;1.50;;
65405;SDS011;52016;51.228;-2.322;2022-07-18T18:30:14;5.93;;;1.40;;
65405;SDS011;52016;51.228;-2.322;2022-07-18T18:33:56;3.95;;;1.42;;
65405;SDS011;52016;51.228;-2.322;2022-07-18T18:37:37;5.32;;;1.40;;
65405;SDS011;52016;51.228;-2.322;2022-07-18T18:41:19;3.58;;;1.40;;
65405;SDS011;52016;51.228;-2.322;2022-07-18T18:45:04;4.80;;;1.50;;
65405;SDS011;52016;51.228;-2.322;2022-07-18T18:52:31;7.85;;;1.90;;
65405;SDS011;52016;51.228;-2.322;2022-07-18T18:56:13;1.83;;;1.40;;
65405;SDS011;52016;51.228;-2.322;2022-07-18T18:59:55;4.50;;;1.40;;
65405;SDS011;52016;51.228;-2.322;2022-07-18T19:03:37;8.02;;;1.50;;
65405;SDS011;52016;51.228;-2.322;2022-07-18T19:07:19;2.60;;;1.60;;
65405;SDS011;52016;51.228;-2.322;2022-07-18T19:11:00;6.03;;;1.50;;
65405;SDS011;52016;51.228;-2.322;2022-07-18T19:14:42;2.65;;;1.80;;
65405;SDS011;52016;51.228;-2.322;2022-07-18T19:18:24;6.20;;;1.60;;
65405;SDS011;52016;51.228;-2.322;2022-07-18T19:22:06;3.55;;;1.65;;
65405;SDS011;52016;51.228;-2.322;2022-07-18T19:25:48;7.25;;;1.90;;
65405;SDS011;52016;51.228;-2.322;2022-07-18T19:29:30;3.80;;;1.52;;
65405;SDS011;52016;51.228;-2.322;2022-07-18T19:33:12;9.07;;;1.90;;
65405;SDS011;52016;51.228;-2.322;2022-07-18T19:36:54;4.65;;;1.63;;
65405;SDS011;52016;51.228;-2.322;2022-07-18T19:40:37;8.35;;;1.80;;
65405;SDS011;52016;51.228;-2.322;2022-07-18T19:44:19;4.20;;;1.83;;
65405;SDS011;52016;51.228;-2.322;2022-07-18T19:48:02;4.57;;;1.60;;
65405;SDS011;52016;51.228;-2.322;2022-07-18T19:51:44;5.45;;;1.73;;
65405;SDS011;52016;51.228;-2.322;2022-07-18T19:55:26;5.50;;;1.90;;
65405;SDS011;52016;51.228;-2.322;2022-07-18T19:59:11;8.77;;;2.95;;
65405;SDS011;52016;51.228;-2.322;2022-07-18T20:02:53;7.78;;;2.08;;
65405;SDS011;52016;51.228;-2.322;2022-07-18T20:06:35;2.58;;;1.90;;
65405;SDS011;52016;51.228;-2.322;2022-07-18T20:10:17;6.93;;;1.98;;
65405;SDS011;52016;51.228;-2.322;2022-07-18T20:13:59;5.60;;;1.83;;
65405;SDS011;52016;51.228;-2.322;2022-07-18T20:17:41;3.95;;;1.80;;
65405;SDS011;52016;51.228;-2.322;2022-07-18T20:21:23;3.10;;;1.88;;
65405;SDS011;52016;51.228;-2.322;2022-07-18T20:25:05;3.72;;;1.80;;
65405;SDS011;52016;51.228;-2.322;2022-07-18T20:28:47;6.60;;;2.38;;
65405;SDS011;52016;51.228;-2.322;2022-07-18T20:32:29;2.90;;;1.98;;
65405;SDS011;52016;51.228;-2.322;2022-07-18T20:36:10;3.85;;;1.80;;
65405;SDS011;52016;51.228;-2.322;2022-07-18T20:39:53;8.98;;;2.10;;
65405;SDS011;52016;51.228;-2.322;2022-07-18T20:43:36;3.58;;;1.88;;
65405;SDS011;52016;51.228;-2.322;2022-07-18T20:47:18;6.20;;;2.08;;
65405;SDS011;52016;51.228;-2.322;2022-07-18T20:51:00;4.10;;;1.67;;
65405;SDS011;52016;51.228;-2.322;2022-07-18T20:54:42;9.27;;;1.95;;
65405;SDS011;52016;51.228;-2.322;2022-07-18T20:58:44;4.43;;;1.88;;
65405;SDS011;52016;51.228;-2.322;2022-07-18T21:02:26;3.92;;;1.80;;
65405;SDS011;52016;51.228;-2.322;2022-07-18T21:06:08;2.35;;;2.08;;
65405;SDS011;52016;51.228;-2.322;2022-07-18T21:09:50;4.85;;;2.00;;
65405;SDS011;52016;51.228;-2.322;2022-07-18T21:13:32;11.48;;;8.57;;
65405;SDS011;52016;51.228;-2.322;2022-07-18T21:17:14;6.80;;;2.28;;
65405;SDS011;52016;51.228;-2.322;2022-07-18T21:20:56;4.45;;;3.55;;
65405;SDS011;52016;51.228;-2.322;2022-07-18T21:24:37;7.32;;;2.67;;
65405;SDS011;52016;51.228;-2.322;2022-07-18T21:28:19;6.65;;;2.70;;
65405;SDS011;52016;51.228;-2.322;2022-07-18T21:32:01;8.27;;;2.47;;
65405;SDS011;52016;51.228;-2.322;2022-07-18T21:35:43;8.20;;;3.10;;
65405;SDS011;52016;51.228;-2.322;2022-07-18T21:39:25;5.18;;;2.75;;
65405;SDS011;52016;51.228;-2.322;2022-07-18T21:43:09;6.88;;;3.13;;
65405;SDS011;52016;51.228;-2.322;2022-07-18T21:46:51;5.82;;;2.65;;
65405;SDS011;52016;51.228;-2.322;2022-07-18T21:50:33;9.20;;;2.75;;
65405;SDS011;52016;51.228;-2.322;2022-07-18T21:54:15;13.55;;;2.40;;
65405;SDS011;52016;51.228;-2.322;2022-07-18T21:57:57;8.05;;;2.45;;
65405;SDS011;52016;51.228;-2.322;2022-07-18T22:01:39;9.23;;;2.38;;
65405;SDS011;52016;51.228;-2.322;2022-07-18T22:05:21;3.92;;;2.20;;
65405;SDS011;52016;51.228;-2.322;2022-07-18T22:09:03;7.90;;;2.47;;
65405;SDS011;52016;51.228;-2.322;2022-07-18T22:12:46;5.35;;;2.20;;
65405;SDS011;52016;51.228;-2.322;2022-07-18T22:16:28;11.65;;;2.60;;
65405;SDS011;52016;51.228;-2.322;2022-07-18T22:20:11;5.10;;;2.60;;
65405;SDS011;52016;51.228;-2.322;2022-07-18T22:23:54;6.28;;;2.70;;
65405;SDS011;52016;51.228;-2.322;2022-07-18T22:27:37;5.70;;;2.95;;
65405;SDS011;52016;51.228;-2.322;2022-07-18T22:31:19;13.57;;;2.40;;
65405;SDS011;52016;51.228;-2.322;2022-07-18T22:35:01;10.30;;;5.00;;
65405;SDS011;52016;51.228;-2.322;2022-07-18T22:38:42;6.93;;;2.50;;